Time;durP1;ratioP1;P1;durP2;ratioP2;P2;SDS_P1;SDS_P2;PMS_P1;PMS_P2;Temp;Humidity;BMP_temperature;BMP_pressure;BME280_temperature;BME280_humidity;BME280_pressure;Samples;Min_cycle;Max_cycle;Signal;HPM_P1;HPM_P2
2023/04/01 00:01:27;;;;;;;3.55;1.80;;;;;;;10.23;93.72;99076.09;5080265;28;20024;-90
2023/04/01 00:03:53;;;;;;;4.85;1.92;;;;;;;10.29;93.36;99068.72;5088429;28;20048;-90
2023/04/01 00:06:19;;;;;;;5.05;2.25;;;;;;;10.31;93.33;99077.41;5084931;28;20395;-89
2023/04/01 00:08:44;;;;;;;6.20;2.25;;;;;;;10.06;94.18;99075.50;5096429;27;20190;-89
2023/04/01 00:11:10;;;;;;;5.72;1.90;;;;;;;10.35;92.92;99078.88;5079482;28;20047;-90
2023/04/01 00:13:36;;;;;;;6.90;3.17;;;;;;;10.12;93.69;99069.84;5083313;28;20028;-90
2023/04/01 00:16:02;;;;;;;7.75;2.50;;;;;;;10.07;93.73;99078.06;5081182;28;20379;-89
2023/04/01 00:18:28;;;;;;;3.72;2.10;;;;;;;10.26;93.28;99072.44;5085671;28;20023;-90
2023/04/01 00:20:54;;;;;;;2.80;1.60;;;;;;;10.26;93.13;99076.84;5088054;28;20030;-90
2023/04/01 00:23:20;;;;;;;4.13;2.42;;;;;;;10.09;94.00;99081.44;5092503;28;20135;-90
2023/04/01 00:25:47;;;;;;;7.97;2.38;;;;;;;10.04;94.68;99074.78;5087480;28;20016;-89
2023/04/01 00:28:14;;;;;;;6.55;2.65;;;;;;;10.07;94.42;99080.72;5092102;28;20033;-89
2023/04/01 00:30:40;;;;;;;5.03;2.20;;;;;;;10.10;94.13;99077.84;5081364;28;20483;-90
2023/04/01 00:33:05;;;;;;;3.85;2.33;;;;;;;10.11;94.46;99084.81;5077394;28;20025;-90
2023/04/01 00:35:32;;;;;;;4.35;2.33;;;;;;;10.10;94.01;99075.22;5080459;28;20020;-90
2023/04/01 00:37:57;;;;;;;4.10;2.42;;;;;;;10.14;94.04;99081.13;5091753;28;20028;-91
2023/04/01 00:40:38;;;;;;;4.70;2.85;;;;;;;10.14;93.72;99086.41;5084477;28;20026;-90
2023/04/01 00:43:20;;;;;;;4.60;2.45;;;;;;;10.17;93.86;99087.06;5082238;28;20035;-88
2023/04/01 00:45:48;;;;;;;7.20;1.90;;;;;;;10.18;93.61;99083.47;5092022;28;20020;-89
2023/04/01 00:48:22;;;;;;;3.83;2.10;;;;;;;10.18;93.62;99099.31;5098467;28;20054;-91
2023/04/01 00:50:54;;;;;;;2.83;1.88;;;;;;;10.24;93.36;99092.81;5088295;28;20028;-89
2023/04/01 00:53:20;;;;;;;3.80;2.22;;;;;;;10.21;92.71;99093.84;5083853;28;20507;-89
2023/04/01 00:56:16;;;;;;;3.13;2.38;;;;;;;10.22;92.74;99087.63;5084835;28;20028;-89
2023/04/01 00:58:46;;;;;;;6.03;2.90;;;;;;;10.23;92.81;99104.28;5083073;28;20100;-89
2023/04/01 01:01:12;;;;;;;3.45;3.15;;;;;;;10.21;92.86;99099.13;5083411;28;20024;-90
2023/04/01 01:03:37;;;;;;;3.72;2.75;;;;;;;10.26;92.48;99103.25;5082220;28;20036;-89
2023/04/01 01:06:40;;;;;;;4.30;3.25;;;;;;;10.33;92.25;99108.03;5082960;28;20503;-88
2023/04/01 01:09:24;;;;;;;6.45;3.17;;;;;;;10.32;92.49;99102.88;5086196;28;20157;-90
2023/04/01 01:12:00;;;;;;;3.05;2.55;;;;;;;10.30;92.61;99104.75;5085314;28;20445;-87
2023/04/01 01:14:59;;;;;;;3.70;2.75;;;;;;;10.34;91.96;99116.81;5080950;28;20047;-89
2023/04/01 01:18:13;;;;;;;4.32;3.10;;;;;;;10.38;92.05;99113.88;5080137;28;20356;-89
2023/04/01 01:20:41;;;;;;;3.80;2.53;;;;;;;10.32;91.93;99119.56;5084402;28;20271;-90
2023/04/01 01:23:18;;;;;;;4.13;2.88;;;;;;;10.30;92.21;99121.44;5077517;28;20053;-90
2023/04/01 01:26:17;;;;;;;4.70;3.20;;;;;;;10.30;92.22;99117.97;5073873;28;20030;-89
2023/04/01 01:29:20;;;;;;;5.22;3.30;;;;;;;10.33;92.36;99112.47;5076246;28;20499;-89
2023/04/01 01:32:10;;;;;;;4.38;3.08;;;;;;;10.35;92.07;99113.22;5073651;28;20038;-90
2023/04/01 01:34:40;;;;;;;4.07;3.08;;;;;;;10.33;92.62;99125.69;5081735;28;20031;-89
2023/04/01 01:37:11;;;;;;;4.65;3.65;;;;;;;10.31;92.17;99123.16;5074733;28;20494;-89
2023/04/01 01:39:39;;;;;;;5.53;3.80;;;;;;;10.29;92.25;99114.47;5087188;28;20077;-90
2023/04/01 01:42:08;;;;;;;5.90;4.03;;;;;;;10.44;91.79;99124.03;5083039;28;20055;-89
2023/04/01 01:44:35;;;;;;;6.03;4.50;;;;;;;10.41;90.97;99126.88;5085533;28;20024;-89
2023/04/01 01:47:01;;;;;;;6.15;4.35;;;;;;;10.45;91.28;99122.25;5084853;28;20474;-90
2023/04/01 01:49:30;;;;;;;7.13;4.93;;;;;;;10.50;91.20;99122.78;5084380;28;20027;-89
2023/04/01 01:51:55;;;;;;;7.20;5.63;;;;;;;10.47;91.15;99131.75;5085726;28;20042;-90
2023/04/01 01:54:21;;;;;;;8.38;5.60;;;;;;;10.46;90.61;99132.69;5089416;28;20099;-89
2023/04/01 01:56:51;;;;;;;8.68;6.10;;;;;;;10.47;90.98;99131.75;5099836;27;20372;-91
2023/04/01 01:59:21;;;;;;;7.45;5.63;;;;;;;10.55;90.65;99139.16;5085073;28;20035;-89
2023/04/01 02:01:50;;;;;;;8.23;6.40;;;;;;;10.52;90.14;99142.00;5082583;28;20028;-90
2023/04/01 02:04:18;;;;;;;8.52;6.03;;;;;;;10.57;90.07;99152.25;5081033;28;20024;-90
2023/04/01 02:06:53;;;;;;;8.73;6.43;;;;;;;10.61;89.40;99151.13;5093153;28;20409;-90
2023/04/01 02:09:19;;;;;;;7.07;5.50;;;;;;;10.59;89.02;99151.22;5074486;28;20453;-90
2023/04/01 02:11:55;;;;;;;7.20;5.47;;;;;;;10.59;89.62;99151.22;5081286;28;20136;-90
2023/04/01 02:14:24;;;;;;;8.23;5.60;;;;;;;10.59;88.76;99159.16;5080649;28;20434;-90
2023/04/01 02:17:05;;;;;;;7.45;5.32;;;;;;;10.59;88.78;99159.16;5085367;28;20375;-90
2023/04/01 02:19:39;;;;;;;9.68;6.28;;;;;;;10.70;88.72;99161.91;5085477;28;20032;-90
2023/04/01 02:22:10;;;;;;;8.05;5.65;;;;;;;10.67;88.44;99163.91;5087309;28;20028;-88
2023/04/01 02:24:39;;;;;;;8.70;6.00;;;;;;;10.67;88.17;99154.16;5101185;27;20031;-90
2023/04/01 02:27:05;;;;;;;8.38;6.43;;;;;;;10.50;88.98;99158.94;5081873;28;20426;-89
2023/04/01 02:29:31;;;;;;;8.48;5.88;;;;;;;10.46;89.06;99155.63;5089646;28;20020;-90
2023/04/01 02:31:58;;;;;;;12.77;7.47;;;;;;;10.47;89.50;99155.53;5097300;28;20028;-91
2023/04/01 02:34:25;;;;;;;9.20;6.53;;;;;;;10.42;89.29;99151.50;5090100;28;20440;-90
2023/04/01 02:36:51;;;;;;;9.43;6.38;;;;;;;10.55;89.03;99162.94;5080237;28;20483;-90
2023/04/01 02:39:17;;;;;;;9.60;6.88;;;;;;;10.62;88.48;99164.22;5085097;28;20024;-89
2023/04/01 02:41:44;;;;;;;12.77;8.20;;;;;;;10.59;88.91;99159.16;5089201;28;20086;-90
2023/04/01 02:44:12;;;;;;;12.50;7.88;;;;;;;10.60;89.04;99162.63;5095969;27;20032;-90
2023/04/01 02:46:37;;;;;;;11.75;8.00;;;;;;;10.58;88.73;99162.72;5089013;28;20124;-91
2023/04/01 02:49:03;;;;;;;10.77;7.85;;;;;;;10.52;88.48;99159.66;5088228;28;20027;-90
2023/04/01 02:51:28;;;;;;;15.60;8.00;;;;;;;10.54;88.74;99168.31;5080101;28;20012;-89
2023/04/01 02:53:53;;;;;;;11.40;8.27;;;;;;;10.60;88.35;99167.94;5079759;28;20035;-91
2023/04/01 02:56:19;;;;;;;12.82;7.43;;;;;;;10.65;87.88;99171.09;5082186;28;20032;-90
2023/04/01 02:58:45;;;;;;;14.77;8.70;;;;;;;10.60;88.15;99174.06;5088699;28;20623;-89
2023/04/01 03:01:10;;;;;;;14.68;8.65;;;;;;;10.38;89.16;99176.41;5093467;27;20097;-90
2023/04/01 03:03:36;;;;;;;14.65;8.93;;;;;;;10.22;89.82;99174.75;5079888;28;20019;-90
2023/04/01 03:06:09;;;;;;;17.33;9.52;;;;;;;10.32;89.91;99190.03;5075571;28;21225;-91
2023/04/01 03:08:35;;;;;;;18.88;9.63;;;;;;;10.28;89.78;99189.38;5083414;28;20056;-90
2023/04/01 03:11:00;;;;;;;13.60;8.88;;;;;;;10.24;90.25;99187.88;5091232;28;20086;-91
2023/04/01 03:13:25;;;;;;;15.40;9.35;;;;;;;10.18;90.42;99185.63;5084608;28;20059;-90
2023/04/01 03:15:51;;;;;;;14.57;9.48;;;;;;;10.23;90.07;99194.94;5081013;28;20102;-91
2023/04/01 03:18:16;;;;;;;17.33;9.60;;;;;;;10.19;90.28;99189.94;5085590;28;20099;-89
2023/04/01 03:20:42;;;;;;;14.80;9.32;;;;;;;10.17;90.54;99190.06;5088864;28;20024;-90
2023/04/01 03:23:08;;;;;;;14.43;8.82;;;;;;;10.16;90.32;99198.91;5076253;28;20300;-90
2023/04/01 03:25:33;;;;;;;14.57;7.70;;;;;;;10.12;90.37;99192.16;5081203;28;20030;-90
2023/04/01 03:27:59;;;;;;;16.42;9.20;;;;;;;10.19;90.16;99192.59;5082944;28;20031;-91
2023/04/01 03:30:25;;;;;;;18.02;9.35;;;;;;;10.18;90.50;99198.84;5089738;28;20024;-90
2023/04/01 03:32:50;;;;;;;16.38;8.45;;;;;;;10.22;90.20;99198.53;5090919;27;20036;-91
2023/04/01 03:35:15;;;;;;;10.55;7.45;;;;;;;10.25;89.63;99204.56;5080840;28;20031;-89
2023/04/01 03:37:42;;;;;;;12.15;8.32;;;;;;;10.19;89.90;99197.88;5082241;28;20105;-90
2023/04/01 03:40:07;;;;;;;12.25;7.30;;;;;;;10.23;89.95;99209.94;5090193;28;20496;-90
2023/04/01 03:42:33;;;;;;;11.85;6.88;;;;;;;10.23;90.23;99209.94;5079549;28;20026;-90
2023/04/01 03:44:58;;;;;;;10.60;7.43;;;;;;;10.21;90.00;99206.53;5076218;28;20476;-91
2023/04/01 03:47:23;;;;;;;13.05;8.13;;;;;;;10.16;90.30;99203.34;5084879;28;20100;-90
2023/04/01 03:49:49;;;;;;;10.35;6.82;;;;;;;10.20;90.24;99204.84;5085121;28;20031;-91
2023/04/01 03:52:14;;;;;;;12.00;6.97;;;;;;;10.17;90.56;99213.84;5075097;28;21118;-90
2023/04/01 03:54:40;;;;;;;8.90;5.78;;;;;;;10.15;90.42;99215.72;5080178;28;20024;-91
2023/04/01 03:57:05;;;;;;;10.57;6.07;;;;;;;10.15;90.45;99217.50;5085795;28;20036;-90
2023/04/01 03:59:31;;;;;;;8.90;5.90;;;;;;;10.12;90.38;99212.44;5083694;28;20846;-91
2023/04/01 04:01:56;;;;;;;8.95;6.00;;;;;;;10.11;90.34;99219.47;5099693;27;20024;-91
2023/04/01 04:04:21;;;;;;;9.00;6.07;;;;;;;10.13;90.32;99208.84;5086797;28;20073;-91
2023/04/01 04:06:47;;;;;;;9.82;5.88;;;;;;;10.15;90.43;99220.16;5093557;27;20124;-91
2023/04/01 04:09:13;;;;;;;10.98;6.40;;;;;;;10.14;90.14;99218.47;5080617;28;20040;-91
2023/04/01 04:11:39;;;;;;;12.13;7.35;;;;;;;10.12;90.53;99218.56;5088163;28;20123;-91
2023/04/01 04:14:04;;;;;;;9.10;5.50;;;;;;;10.21;90.08;99238.22;5085886;28;20065;-90
2023/04/01 04:16:30;;;;;;;7.18;4.88;;;;;;;10.16;89.73;99233.25;5094459;28;20025;-90
2023/04/01 04:18:55;;;;;;;7.25;5.00;;;;;;;10.10;90.19;99233.63;5091770;28;20530;-91
2023/04/01 04:21:21;;;;;;;8.48;5.32;;;;;;;9.99;91.21;99238.78;5084416;28;20406;-91
2023/04/01 04:23:46;;;;;;;8.10;5.40;;;;;;;10.03;90.75;99229.72;5073488;28;20467;-91
2023/04/01 04:26:14;;;;;;;7.43;5.00;;;;;;;10.04;90.52;99239.31;5081684;28;20466;-90
2023/04/01 04:28:40;;;;;;;6.43;5.03;;;;;;;10.07;90.64;99247.06;5083013;28;20043;-91
2023/04/01 04:31:06;;;;;;;6.78;4.53;;;;;;;9.89;91.35;99245.59;5099942;28;20020;-91
2023/04/01 04:33:32;;;;;;;7.18;4.63;;;;;;;9.89;91.47;99248.22;5098962;28;20487;-90
2023/04/01 04:35:59;;;;;;;7.53;5.28;;;;;;;9.95;91.09;99243.38;5085569;28;20114;-92
2023/04/01 04:38:25;;;;;;;6.55;4.93;;;;;;;9.87;90.85;99243.00;5076832;28;20040;-92
2023/04/01 04:40:50;;;;;;;6.63;5.30;;;;;;;9.96;90.60;99245.06;5079567;28;20084;-92
2023/04/01 04:43:17;;;;;;;5.65;4.50;;;;;;;10.04;90.07;99255.16;5081731;28;20081;-89
2023/04/01 04:45:42;;;;;;;6.07;4.63;;;;;;;9.93;90.70;99254.97;5083424;28;20481;-91
2023/04/01 04:48:09;;;;;;;7.75;5.07;;;;;;;9.86;90.51;99253.69;5081084;28;20012;-91
2023/04/01 04:50:35;;;;;;;5.28;4.47;;;;;;;9.87;90.66;99253.56;5075399;28;20040;-91
2023/04/01 04:53:00;;;;;;;5.35;4.18;;;;;;;9.87;90.52;99264.13;5084435;28;20032;-89
2023/04/01 04:55:25;;;;;;;7.60;4.38;;;;;;;9.86;90.81;99258.97;5078388;28;20494;-90
2023/04/01 04:57:50;;;;;;;5.13;4.13;;;;;;;9.76;90.95;99263.97;5104073;28;20243;-90
2023/04/01 05:00:16;;;;;;;4.72;3.55;;;;;;;9.82;91.15;99275.94;5082746;28;20048;-90
2023/04/01 05:02:41;;;;;;;4.75;3.70;;;;;;;9.81;91.73;99271.59;5081372;28;20163;-90
2023/04/01 05:05:07;;;;;;;5.53;3.60;;;;;;;9.80;91.05;99275.19;5083139;28;20051;-91
2023/04/01 05:07:33;;;;;;;6.20;3.90;;;;;;;9.83;91.23;99274.97;5079060;28;20083;-91
2023/04/01 05:09:59;;;;;;;5.18;4.03;;;;;;;9.81;90.87;99283.00;5085099;28;20020;-90
2023/04/01 05:12:24;;;;;;;6.03;4.05;;;;;;;9.84;90.66;99288.09;5086395;28;20508;-92
2023/04/01 05:14:50;;;;;;;4.60;3.65;;;;;;;9.82;90.36;99278.56;5082338;28;20032;-86
2023/04/01 05:17:15;;;;;;;5.18;3.42;;;;;;;9.95;89.98;99290.06;5085487;28;20035;-86
2023/04/01 05:19:40;;;;;;;5.20;3.80;;;;;;;9.83;90.25;99291.66;5079344;28;20031;-86
2023/04/01 05:22:06;;;;;;;5.70;4.13;;;;;;;9.79;90.46;99289.31;5084813;28;20084;-86
2023/04/01 05:24:32;;;;;;;4.93;3.83;;;;;;;9.80;90.28;99293.66;5080295;28;20031;-85
2023/04/01 05:26:58;;;;;;;4.15;3.35;;;;;;;9.88;89.59;99300.13;5084876;28;20098;-86
2023/04/01 05:29:25;;;;;;;6.70;3.83;;;;;;;9.88;90.33;99307.22;5088577;28;20691;-85
2023/04/01 05:31:50;;;;;;;5.15;3.92;;;;;;;9.91;90.07;99307.88;5084169;28;20109;-86
2023/04/01 05:34:15;;;;;;;6.53;4.45;;;;;;;9.88;89.57;99300.13;5083257;28;20037;-86
2023/04/01 05:36:42;;;;;;;4.50;3.30;;;;;;;9.97;89.27;99319.84;5084320;28;20414;-86
2023/04/01 05:39:08;;;;;;;4.75;3.65;;;;;;;9.95;89.50;99313.81;5081706;28;20535;-86
2023/04/01 05:41:37;;;;;;;4.22;3.33;;;;;;;9.99;89.45;99325.91;5084113;28;20035;-86
2023/04/01 05:44:02;;;;;;;5.95;3.72;;;;;;;10.02;89.43;99322.19;5080440;28;20124;-86
2023/04/01 05:46:28;;;;;;;5.05;3.70;;;;;;;10.06;89.23;99332.47;5080300;28;20519;-86
2023/04/01 05:48:53;;;;;;;4.38;3.17;;;;;;;9.97;89.82;99335.69;5081926;28;20021;-86
2023/04/01 05:51:19;;;;;;;5.85;4.20;;;;;;;9.97;89.08;99327.75;5096322;28;20044;-85
2023/04/01 05:53:44;;;;;;;5.85;4.22;;;;;;;10.00;89.51;99334.66;5078078;28;20032;-86
2023/04/01 05:56:09;;;;;;;6.25;4.32;;;;;;;10.01;89.87;99342.47;5078183;28;20060;-86
2023/04/01 05:58:36;;;;;;;5.30;4.00;;;;;;;10.02;89.49;99348.59;5081054;28;20027;-86
2023/04/01 06:01:07;;;;;;;6.82;4.78;;;;;;;10.04;89.83;99357.28;5086916;28;20024;-86
2023/04/01 06:03:33;;;;;;;6.77;4.77;;;;;;;10.04;89.62;99360.78;5085149;28;20054;-86
2023/04/01 06:06:00;;;;;;;7.45;4.28;;;;;;;10.05;89.63;99359.81;5085889;28;20475;-86
2023/04/01 06:08:27;;;;;;;8.73;5.65;;;;;;;10.07;89.66;99365.88;5084568;28;20019;-86
2023/04/01 06:11:22;;;;;;;9.60;5.68;;;;;;;10.16;89.71;99367.91;5103826;28;20511;-86
2023/04/01 06:14:06;;;;;;;9.73;6.20;;;;;;;10.15;89.78;99378.59;5084037;28;20036;-86
2023/04/01 06:16:57;;;;;;;12.55;7.68;;;;;;;10.19;89.65;99382.75;5083037;28;20082;-86
2023/04/01 06:19:25;;;;;;;10.45;6.63;;;;;;;10.16;89.70;99382.91;5077290;28;20483;-86
2023/04/01 06:22:14;;;;;;;10.88;7.25;;;;;;;10.16;89.69;99382.91;5082608;28;20028;-86
2023/04/01 06:25:16;;;;;;;10.82;6.43;;;;;;;10.26;89.83;99396.44;5090460;28;20031;-85
2023/04/01 06:28:18;;;;;;;10.05;6.38;;;;;;;10.32;89.38;99404.00;5081006;28;20073;-86
2023/04/01 06:30:52;;;;;;;8.13;5.90;;;;;;;10.31;89.17;99405.81;5085793;28;20020;-86
2023/04/01 06:33:42;;;;;;;8.27;5.55;;;;;;;10.27;89.24;99409.56;5082386;28;20035;-85
2023/04/01 06:36:30;;;;;;;8.30;5.55;;;;;;;10.29;89.62;99410.31;5087931;28;20543;-86
2023/04/01 06:39:22;;;;;;;8.75;5.80;;;;;;;10.28;89.58;99407.78;5099993;27;20479;-85
2023/04/01 06:42:10;;;;;;;8.45;5.60;;;;;;;10.36;89.04;99408.16;5081894;28;20078;-86
2023/04/01 06:44:55;;;;;;;9.45;5.70;;;;;;;10.29;89.12;99401.53;5085969;28;20105;-86
2023/04/01 06:48:13;;;;;;;11.65;6.40;;;;;;;10.41;89.18;99417.50;5078019;28;20502;-85
2023/04/01 06:50:56;;;;;;;11.88;7.38;;;;;;;10.39;89.13;99423.78;5053357;28;20055;-85
2023/04/01 06:53:44;;;;;;;13.77;8.05;;;;;;;10.42;89.54;99429.75;5080180;28;20533;-86
2023/04/01 06:56:13;;;;;;;12.43;7.95;;;;;;;10.45;89.19;99428.72;5079313;28;20399;-85
2023/04/01 06:58:51;;;;;;;16.08;9.32;;;;;;;10.33;90.13;99425.03;5081147;28;20475;-85
2023/04/01 07:01:22;;;;;;;16.60;8.93;;;;;;;10.71;88.27;99443.78;5085599;28;20028;-85
2023/04/01 07:03:55;;;;;;;13.65;8.05;;;;;;;10.80;88.32;99446.78;5083720;28;20040;-86
2023/04/01 07:06:39;;;;;;;17.13;10.35;;;;;;;10.79;88.43;99445.94;5080305;28;20032;-86
2023/04/01 07:09:15;;;;;;;14.43;9.50;;;;;;;10.77;88.16;99449.63;5086734;28;20036;-86
2023/04/01 07:11:40;;;;;;;17.00;9.45;;;;;;;10.67;88.05;99444.91;5081900;28;20048;-85
2023/04/01 07:14:17;;;;;;;16.23;10.00;;;;;;;10.71;88.11;99454.34;5077769;28;20044;-86
2023/04/01 07:16:51;;;;;;;16.52;9.90;;;;;;;10.75;88.17;99454.16;5084712;28;20028;-85
2023/04/01 07:19:31;;;;;;;20.13;11.15;;;;;;;10.69;88.15;99461.53;5086137;28;20031;-86
2023/04/01 07:22:03;;;;;;;19.60;11.18;;;;;;;10.49;89.82;99461.91;5076660;28;20052;-85
2023/04/01 07:24:39;;;;;;;17.75;10.25;;;;;;;10.52;89.52;99464.38;5075086;28;20032;-85
2023/04/01 07:27:09;;;;;;;17.17;9.82;;;;;;;10.52;89.84;99472.31;5091420;28;20036;-86
2023/04/01 07:29:35;;;;;;;19.48;11.05;;;;;;;10.68;89.66;99477.50;5085099;28;20062;-85
2023/04/01 07:32:12;;;;;;;16.77;10.35;;;;;;;10.63;89.93;99475.16;5083382;28;20031;-86
2023/04/01 07:34:51;;;;;;;17.00;10.27;;;;;;;10.58;89.90;99474.56;5083993;28;20028;-86
2023/04/01 07:37:52;;;;;;;18.08;11.27;;;;;;;10.62;90.57;99491.06;5088167;28;20115;-85
2023/04/01 07:40:35;;;;;;;14.70;9.13;;;;;;;10.68;90.03;99493.34;5079713;28;22134;-86
2023/04/01 07:43:42;;;;;;;18.08;8.90;;;;;;;10.81;89.26;99501.34;5078438;28;20479;-86
2023/04/01 07:46:30;;;;;;;17.02;10.35;;;;;;;10.67;89.82;99505.69;5083768;28;20574;-86
2023/04/01 07:49:27;;;;;;;18.00;10.57;;;;;;;10.68;89.64;99509.22;5083387;28;20085;-86
2023/04/01 07:52:12;;;;;;;18.95;9.07;;;;;;;10.72;88.82;99508.06;5091655;28;20530;-85
2023/04/01 07:54:51;;;;;;;17.88;10.18;;;;;;;10.71;89.30;99509.84;5085709;28;20103;-86
2023/04/01 07:57:25;;;;;;;17.27;9.85;;;;;;;10.69;89.00;99510.91;5084546;28;20016;-86
2023/04/01 08:00:03;;;;;;;17.10;10.27;;;;;;;10.70;88.63;99521.38;5106036;28;20023;-86
2023/04/01 08:03:00;;;;;;;16.98;9.25;;;;;;;10.80;88.69;99526.94;5093501;28;20043;-86
2023/04/01 08:05:40;;;;;;;16.08;9.70;;;;;;;10.88;88.61;99529.13;5035414;28;20056;-85
2023/04/01 08:08:40;;;;;;;17.27;9.90;;;;;;;10.90;88.17;99528.06;5086490;28;20607;-86
2023/04/01 08:11:33;;;;;;;17.13;10.68;;;;;;;10.99;87.75;99534.56;5082339;28;20582;-85
2023/04/01 08:14:33;;;;;;;18.00;11.02;;;;;;;11.17;87.46;99532.56;5083047;28;20510;-85
2023/04/01 08:17:12;;;;;;;14.90;9.98;;;;;;;11.18;87.34;99528.97;5089426;28;20566;-86
2023/04/01 08:20:02;;;;;;;18.88;11.15;;;;;;;11.15;86.78;99545.91;5103679;27;20025;-85
2023/04/01 08:22:40;;;;;;;17.70;8.65;;;;;;;11.27;85.82;99544.25;5083274;28;20027;-86
2023/04/01 08:25:10;;;;;;;17.20;9.85;;;;;;;11.39;85.70;99551.44;5089288;28;20040;-85
2023/04/01 08:27:40;;;;;;;15.70;10.00;;;;;;;11.44;85.27;99556.41;5094234;28;20110;-85
2023/04/01 08:30:18;;;;;;;16.75;10.75;;;;;;;11.36;85.67;99558.69;5089759;28;20126;-86
2023/04/01 08:33:02;;;;;;;19.17;11.13;;;;;;;11.40;84.99;99563.69;5074994;28;20115;-85
2023/04/01 08:35:38;;;;;;;22.45;11.25;;;;;;;11.45;85.60;99558.13;5085641;28;20032;-86
2023/04/01 08:38:16;;;;;;;13.18;8.23;;;;;;;11.47;85.16;99565.03;5078250;28;20031;-85
2023/04/01 08:40:56;;;;;;;15.70;10.55;;;;;;;11.33;85.57;99569.47;5082979;28;20028;-86
2023/04/01 08:43:31;;;;;;;17.02;10.88;;;;;;;11.33;86.54;99577.41;5089339;28;20061;-85
2023/04/01 08:46:25;;;;;;;20.60;11.30;;;;;;;11.45;86.26;99579.28;5083783;28;20093;-85
2023/04/01 08:48:57;;;;;;;15.98;10.18;;;;;;;11.39;86.54;99587.63;5079815;28;20103;-85
2023/04/01 08:51:43;;;;;;;19.02;11.90;;;;;;;11.51;85.13;99584.19;5086622;28;20028;-86
2023/04/01 08:54:30;;;;;;;15.02;10.40;;;;;;;11.40;85.67;99597.25;5082068;28;20100;-85
2023/04/01 08:57:37;;;;;;;22.38;10.93;;;;;;;11.62;85.61;99594.09;5086095;28;20058;-86
2023/04/01 09:00:30;;;;;;;15.82;10.63;;;;;;;11.68;84.95;99602.47;5055641;28;20078;-86
2023/04/01 09:03:50;;;;;;;16.15;10.40;;;;;;;11.54;84.85;99612.25;5085396;28;20024;-86
2023/04/01 09:06:28;;;;;;;22.55;10.85;;;;;;;11.66;84.57;99612.34;5074261;28;20576;-86
2023/04/01 09:09:02;;;;;;;15.13;9.32;;;;;;;11.61;84.58;99619.72;5088382;28;20498;-85
2023/04/01 09:11:43;;;;;;;15.07;10.88;;;;;;;11.61;84.49;99618.84;5083759;28;20052;-86
2023/04/01 09:14:17;;;;;;;18.02;11.02;;;;;;;11.64;84.25;99624.81;5080967;28;20096;-86
2023/04/01 09:16:42;;;;;;;15.10;10.50;;;;;;;11.63;84.39;99633.69;5080770;28;20029;-86
2023/04/01 09:19:22;;;;;;;15.80;10.10;;;;;;;11.73;84.32;99621.56;5084683;28;20111;-85
2023/04/01 09:22:03;;;;;;;14.50;9.73;;;;;;;11.88;84.55;99632.16;5081420;28;20143;-86
2023/04/01 09:24:43;;;;;;;15.27;10.75;;;;;;;12.12;84.36;99640.28;5090323;28;20623;-85
2023/04/01 09:27:37;;;;;;;16.98;10.55;;;;;;;12.28;84.18;99637.50;5085943;28;20028;-86
2023/04/01 09:30:16;;;;;;;12.77;8.88;;;;;;;12.29;82.87;99647.13;5083725;28;20032;-86
2023/04/01 09:33:18;;;;;;;12.75;8.27;;;;;;;12.30;82.36;99647.03;5088419;28;20032;-86
2023/04/01 09:35:48;;;;;;;11.45;8.38;;;;;;;12.40;82.14;99639.31;5093660;28;20027;-85
2023/04/01 09:38:41;;;;;;;16.42;9.32;;;;;;;12.50;81.21;99651.00;5089202;28;20416;-86
2023/04/01 09:41:29;;;;;;;12.63;7.75;;;;;;;12.50;81.44;99651.00;5083064;28;20063;-86
2023/04/01 09:44:01;;;;;;;8.40;6.20;;;;;;;12.42;80.33;99659.47;5087025;28;20466;-86
2023/04/01 09:47:09;;;;;;;7.85;6.80;;;;;;;12.49;81.53;99659.91;5086300;28;20052;-86
2023/04/01 09:49:35;;;;;;;7.88;6.18;;;;;;;12.63;80.23;99662.47;5091946;28;20479;-87
2023/04/01 09:52:10;;;;;;;7.65;6.38;;;;;;;12.65;80.48;99660.59;5077738;28;20107;-86
2023/04/01 09:54:53;;;;;;;9.15;7.43;;;;;;;12.63;80.29;99662.47;5087236;28;20490;-86
2023/04/01 09:57:54;;;;;;;8.25;7.38;;;;;;;12.70;80.08;99665.56;5081520;28;20111;-87
2023/04/01 10:00:59;;;;;;;9.43;6.88;;;;;;;12.67;79.93;99668.41;5092534;28;20015;-86
2023/04/01 10:03:42;;;;;;;8.70;6.80;;;;;;;12.50;80.31;99672.22;5082144;28;20038;-87
2023/04/01 10:06:51;;;;;;;9.48;7.07;;;;;;;12.50;80.54;99672.22;5077020;28;20148;-87
2023/04/01 10:09:41;;;;;;;8.50;6.85;;;;;;;12.46;80.51;99678.69;5086392;28;20488;-87
2023/04/01 10:12:18;;;;;;;10.48;7.88;;;;;;;12.35;80.12;99682.03;5097009;28;20116;-87
2023/04/01 10:15:11;;;;;;;8.48;6.88;;;;;;;12.39;79.79;99682.66;5089200;28;20480;-87
2023/04/01 10:18:04;;;;;;;10.05;8.23;;;;;;;12.40;80.83;99693.19;5107358;27;20037;-86
2023/04/01 10:20:39;;;;;;;9.50;7.78;;;;;;;12.38;80.25;99689.78;5081962;28;20699;-86
2023/04/01 10:23:35;;;;;;;9.00;7.60;;;;;;;12.33;80.31;99694.53;5076197;28;20051;-86
2023/04/01 10:26:06;;;;;;;8.90;7.55;;;;;;;12.29;80.47;99694.84;5081375;28;20036;-87
2023/04/01 10:28:45;;;;;;;10.23;8.30;;;;;;;12.23;80.38;99694.28;5085237;28;20037;-86
2023/04/01 10:31:41;;;;;;;9.25;8.23;;;;;;;12.30;81.53;99701.81;5087144;28;20430;-88
2023/04/01 10:34:46;;;;;;;11.43;8.80;;;;;;;12.33;81.73;99712.25;5093921;28;20056;-87
2023/04/01 10:37:21;;;;;;;11.77;8.90;;;;;;;12.29;81.39;99698.34;5083673;28;20399;-86
2023/04/01 10:40:19;;;;;;;11.98;8.77;;;;;;;12.32;81.01;99705.25;5099514;28;20105;-86
2023/04/01 10:43:11;;;;;;;10.45;8.90;;;;;;;12.35;81.12;99711.16;5072334;28;20068;-87
2023/04/01 10:46:04;;;;;;;12.25;9.02;;;;;;;12.31;81.07;99707.06;5082098;28;20460;-86
2023/04/01 10:48:53;;;;;;;11.80;9.70;;;;;;;12.28;82.34;99709.03;5076390;28;20039;-87
2023/04/01 10:51:51;;;;;;;12.25;9.73;;;;;;;12.46;82.28;99719.28;5084426;28;20035;-86
2023/04/01 10:54:54;;;;;;;14.90;9.50;;;;;;;12.64;81.36;99722.53;5091986;28;20106;-86
2023/04/01 10:57:38;;;;;;;14.45;10.65;;;;;;;12.55;80.76;99727.59;5084358;28;20030;-86
2023/04/01 11:00:30;;;;;;;12.23;10.15;;;;;;;12.48;81.31;99727.13;5087929;28;20072;-87
2023/04/01 11:03:32;;;;;;;14.30;11.10;;;;;;;12.46;81.98;99729.03;5081769;28;20526;-86
2023/04/01 11:05:57;;;;;;;15.32;11.27;;;;;;;12.39;82.04;99722.44;5077783;28;20031;-86
2023/04/01 11:09:02;;;;;;;15.15;11.23;;;;;;;12.49;82.04;99728.81;5076695;28;20024;-86
2023/04/01 11:11:44;;;;;;;14.38;9.90;;;;;;;12.40;81.12;99729.44;5083977;28;20128;-86
2023/04/01 11:14:45;;;;;;;12.10;9.23;;;;;;;12.27;81.62;99728.56;5081366;28;20077;-86
2023/04/01 11:17:30;;;;;;;14.60;9.80;;;;;;;12.21;81.97;99743.88;5077754;28;20023;-86
2023/04/01 11:20:33;;;;;;;14.52;11.15;;;;;;;12.28;81.98;99747.00;5073341;28;20056;-86
2023/04/01 11:23:08;;;;;;;14.38;11.50;;;;;;;12.20;82.32;99742.19;5085729;28;20047;-86
2023/04/01 11:25:49;;;;;;;16.58;11.85;;;;;;;12.18;82.86;99749.38;5079671;28;20111;-87
2023/04/01 11:28:35;;;;;;;16.17;11.50;;;;;;;12.19;82.44;99743.13;5080246;28;20266;-86
2023/04/01 11:31:19;;;;;;;16.98;11.38;;;;;;;12.20;82.72;99754.56;5075153;28;20047;-87
2023/04/01 11:34:23;;;;;;;14.75;11.98;;;;;;;12.16;82.91;99756.56;5084722;28;20051;-86
2023/04/01 11:37:07;;;;;;;17.00;12.07;;;;;;;12.09;83.00;99760.56;5077533;28;20036;-86
2023/04/01 11:40:05;;;;;;;15.60;10.15;;;;;;;11.96;82.24;99763.13;5080774;28;20494;-86
2023/04/01 11:43:00;;;;;;;16.50;12.40;;;;;;;11.82;83.50;99775.53;5054360;28;20036;-86
2023/04/01 11:45:37;;;;;;;16.00;12.18;;;;;;;11.92;83.10;99769.56;5084444;28;20475;-86
2023/04/01 11:48:15;;;;;;;15.48;11.32;;;;;;;11.95;83.70;99779.13;5077349;28;20031;-87
2023/04/01 11:51:02;;;;;;;16.08;11.80;;;;;;;12.02;83.31;99787.53;5096349;27;20056;-86
2023/04/01 11:53:35;;;;;;;14.60;11.68;;;;;;;11.95;83.80;99781.78;5093253;28;20024;-86
2023/04/01 11:56:48;;;;;;;13.95;9.57;;;;;;;12.25;82.78;99786.94;5082087;28;20109;-87
2023/04/01 11:59:26;;;;;;;;;;;;;;;12.40;82.43;99787.75;5069744;28;20027;-86
2023/04/01 12:02:20;;;;;;;14.02;10.05;;;;;;;12.52;82.17;99792.25;5047517;28;20399;-87
2023/04/01 12:05:03;;;;;;;13.55;9.95;;;;;;;12.62;81.82;99788.06;5077207;28;20388;-87
2023/04/01 12:07:52;;;;;;;12.52;9.90;;;;;;;12.64;81.90;99801.22;5102868;28;20032;-87
2023/04/01 12:10:24;;;;;;;15.30;10.85;;;;;;;12.39;82.90;99796.66;5079803;28;20039;-87
2023/04/01 12:12:58;;;;;;;13.13;10.55;;;;;;;12.25;83.09;99798.38;5075486;28;20040;-87